ZSPD Airport Information

Runway Information
Runway 16 Length 12467 ft width 197 ft
Elevation 13 ft Threshold 0 ft Heading 162
Runway 34 Length 12467 ft Width 197 ft
Elevation 13 ft Threshold 0 ft Heading 342
Runway 17 Length 13123 ft width 197 ft
Elevation 10 ft Threshold 0 ft Heading 162
Runway 35 Length 13123 ft Width 197 ft
Elevation 10 ft Threshold 0 ft Heading 342
Airport Frequencies
Type APP Name SHANGHAI A Frequency 119.75 MHZ
Type APP Name SHANGHAI A Frequency 120.3 MHZ
Type APP Name SHAINGHAI Frequency 121.3 MHZ
Type APP Name SHANGHAI A Frequency 123.8 MHZ
Type ATIS Name ATIS Frequency 127.85 MHZ
Type CLD Name DEL Frequency 121.95 MHZ
Type GND Name GND WEST Frequency 121.65 MHZ
Type GND Name GND EAST Frequency 121.8 MHZ
Type TWR Name TWR EAST Frequency 118.4 MHZ
Type TWR Name TWR WEST Frequency 118.8 MHZ
Airport Navaids
Type VOR-DME Name Hengsha Frequency 114400 KHZ
Type VOR-DME Name Nanhui Frequency 114600 KHZ
Type VOR-DME Name Liuzao Frequency 109400 KHZ
Type VOR-DME Name Pudong Frequency 116900 KHZ
Type VOR-DME Name Shuyuan Frequency 113600 KHZ
Airport Weather Information & NOTAM
ADDS - METARS form results

(0817 UTC 08 August 2020)
Data provider http://aviationweather.gov/metar/data/
 
METAR text: ZSPD 080800Z 20005MPS CAVOK 33/26 Q1001 NOSIG
Conditions at: ZSPD (SHANGHAI/PUDONG , CN) observed 0800 UTC 08 August 2020
Temperature: 33.0°C (91°F)
Dewpoint: 26.0°C (79°F) [RH = 67%]
Pressure (altimeter): 29.56 inches Hg (1001.0 mb)
Winds: from the SSW (200 degrees) at 12 MPH (10 knots; 5.1 m/s)
Visibility: 6 or more miles (10+ km)
Ceiling: ceiling and visibility are OK
Clouds: unknown
Weather: no significant weather observed at this time

METAR text: ZSPD 080730Z 21006MPS CAVOK 33/25 Q1001 NOSIG
Conditions at: ZSPD (SHANGHAI/PUDONG , CN) observed 0730 UTC 08 August 2020
Temperature: 33.0°C (91°F)
Dewpoint: 25.0°C (77°F) [RH = 63%]
Pressure (altimeter): 29.56 inches Hg (1001.0 mb)
Winds: from the SSW (210 degrees) at 14 MPH (12 knots; 6.2 m/s)
Visibility: 6 or more miles (10+ km)
Ceiling: ceiling and visibility are OK
Clouds: unknown
Weather: no significant weather observed at this time

Forecast for: ZSPD (SHANGHAI/PUDONG , CN)
Text: TAF ZSPD 080312Z 0806/0906 20004MPS 9999 BKN020 TX33/0806Z TN27/0820Z
Forecast period: 0600 UTC 08 August 2020 to 0600 UTC 09 August 2020
Forecast type: FROM: standard forecast or significant change
Winds: from the SSW (200 degrees) at 9 MPH (8 knots; 4.1 m/s)
Visibility: 6 or more miles (10+ km)
Ceiling: 2000 feet AGL
Clouds: broken clouds at 2000 feet AGL
Weather: no significant weather forecast for this period
Text: TEMPO 0806/0812 TSRA BKN013 FEW030CB
Forecast period: 0600 to 1200 UTC 08 August 2020
Forecast type: TEMPORARY: The following changes expected for less than half the time period
Visibility: missing
Ceiling: 1300 feet AGL
Clouds: broken clouds at 1300 feet AGL
few clouds at 3000 feet AGL
Weather: TSRA  (rain associated with thunderstorm(s))